GIA1011 WIII-WALL
Flight info
| Callsign | GIA1011 |
|---|---|
| Flight time | N/A |
| Altitude | 39000 |
| Route | EGUKO2A/07L EGUKO T9 SILJA |
| Aircraft | A339/H-SADE1E2E3GHIJ3J5M1P2RWXY/LB2D1 |
Departure
| Time | N/A |
|---|---|
| Airport | Soekarno-Hatta International Airport (WIII) |
Arrival
| Time | 2026-04-20 15:34 |
|---|---|
| Airport | Sultan Aji Muhammad Sulaiman Sepinggan International Airport (WALL) |
| Time | Latitude | Longitude | Altitude | Speed | Heading |
|---|---|---|---|---|---|
| 2026-04-20 15:01 | -2.37382 | 113.75944 | 38875 ft | 470 kts | 57° |
| 2026-04-20 15:02 | -2.33796 | 113.81400 | 38874 ft | 470 kts | 57° |
| 2026-04-20 15:02 | -2.30204 | 113.86861 | 38877 ft | 470 kts | 57° |
| 2026-04-20 15:03 | -2.26615 | 113.92320 | 38873 ft | 470 kts | 57° |
| 2026-04-20 15:03 | -2.23457 | 113.98028 | 38874 ft | 470 kts | 66° |
| 2026-04-20 15:04 | -2.20874 | 114.04025 | 38870 ft | 470 kts | 66° |
| 2026-04-20 15:04 | -2.18250 | 114.10006 | 38869 ft | 470 kts | 66° |
| 2026-04-20 15:05 | -2.15619 | 114.15990 | 38870 ft | 470 kts | 66° |
| 2026-04-20 15:05 | -2.12988 | 114.21980 | 38870 ft | 471 kts | 66° |
| 2026-04-20 15:06 | -2.10355 | 114.27974 | 38868 ft | 471 kts | 66° |
| 2026-04-20 15:06 | -2.07724 | 114.33964 | 38870 ft | 471 kts | 66° |
| 2026-04-20 15:07 | -2.05090 | 114.39961 | 38871 ft | 471 kts | 66° |
| 2026-04-20 15:07 | -2.02902 | 114.44940 | 38872 ft | 471 kts | 66° |
| 2026-04-20 15:08 | -2.00269 | 114.50934 | 38874 ft | 471 kts | 66° |
| 2026-04-20 15:08 | -1.97633 | 114.56930 | 38878 ft | 471 kts | 66° |
| 2026-04-20 15:09 | -1.94998 | 114.62927 | 38876 ft | 471 kts | 66° |
| 2026-04-20 15:09 | -1.92362 | 114.68923 | 38877 ft | 471 kts | 66° |
| 2026-04-20 15:10 | -1.89726 | 114.74923 | 38882 ft | 471 kts | 66° |
| 2026-04-20 15:10 | -1.87089 | 114.80920 | 38879 ft | 471 kts | 66° |
| 2026-04-20 15:11 | -1.84450 | 114.86923 | 38884 ft | 472 kts | 66° |
| 2026-04-20 15:11 | -1.81811 | 114.92924 | 38885 ft | 472 kts | 66° |
| 2026-04-20 15:12 | -1.79172 | 114.98924 | 38888 ft | 472 kts | 66° |
| 2026-04-20 15:12 | -1.76532 | 115.04926 | 38895 ft | 472 kts | 66° |
| 2026-04-20 15:13 | -1.73892 | 115.10927 | 38894 ft | 472 kts | 66° |
| 2026-04-20 15:13 | -1.71252 | 115.16929 | 38894 ft | 472 kts | 66° |
| 2026-04-20 15:14 | -1.68631 | 115.22945 | 38644 ft | 472 kts | 68° |
| 2026-04-20 15:14 | -1.67518 | 115.26034 | 37977 ft | 474 kts | 71° |
| 2026-04-20 15:14 | -1.66447 | 115.29163 | 36992 ft | 478 kts | 71° |
| 2026-04-20 15:14 | -1.65358 | 115.32325 | 35796 ft | 484 kts | 71° |
| 2026-04-20 15:15 | -1.64256 | 115.35504 | 34378 ft | 485 kts | 71° |
| 2026-04-20 15:15 | -1.63146 | 115.38696 | 32922 ft | 485 kts | 71° |
| 2026-04-20 15:15 | -1.62048 | 115.41858 | 31817 ft | 479 kts | 71° |
| 2026-04-20 15:15 | -1.60961 | 115.44987 | 30958 ft | 475 kts | 71° |
| 2026-04-20 15:16 | -1.59886 | 115.48078 | 30332 ft | 464 kts | 71° |
| 2026-04-20 15:16 | -1.58836 | 115.51096 | 29597 ft | 458 kts | 71° |
| 2026-04-20 15:16 | -1.57798 | 115.54080 | 29019 ft | 452 kts | 71° |
| 2026-04-20 15:16 | -1.56770 | 115.57035 | 28383 ft | 448 kts | 71° |
| 2026-04-20 15:17 | -1.55822 | 115.59980 | 27534 ft | 443 kts | 77° |
| 2026-04-20 15:17 | -1.55230 | 115.63002 | 26579 ft | 445 kts | 81° |
| 2026-04-20 15:17 | -1.54688 | 115.66071 | 25703 ft | 450 kts | 81° |
| 2026-04-20 15:17 | -1.54141 | 115.69143 | 24860 ft | 446 kts | 81° |
| 2026-04-20 15:18 | -1.53593 | 115.72174 | 24064 ft | 441 kts | 81° |
| 2026-04-20 15:18 | -1.53044 | 115.75163 | 23271 ft | 435 kts | 81° |
| 2026-04-20 15:18 | -1.52499 | 115.78121 | 22384 ft | 431 kts | 80° |
| 2026-04-20 15:18 | -1.51955 | 115.81066 | 21519 ft | 429 kts | 80° |
| 2026-04-20 15:19 | -1.51415 | 115.83979 | 20685 ft | 423 kts | 80° |
| 2026-04-20 15:19 | -1.50884 | 115.86851 | 19890 ft | 417 kts | 80° |
| 2026-04-20 15:19 | -1.50363 | 115.89661 | 19384 ft | 408 kts | 80° |
| 2026-04-20 15:19 | -1.49853 | 115.92419 | 18925 ft | 410 kts | 80° |
| 2026-04-20 15:20 | -1.49335 | 115.95214 | 18495 ft | 408 kts | 80° |
| 2026-04-20 15:20 | -1.48820 | 115.97991 | 18023 ft | 405 kts | 80° |
| 2026-04-20 15:20 | -1.48308 | 116.00749 | 17386 ft | 402 kts | 80° |
| 2026-04-20 15:20 | -1.47804 | 116.03466 | 16670 ft | 393 kts | 80° |
| 2026-04-20 15:21 | -1.47308 | 116.06134 | 15648 ft | 388 kts | 80° |
| 2026-04-20 15:21 | -1.46819 | 116.08768 | 14630 ft | 382 kts | 80° |
| 2026-04-20 15:21 | -1.46337 | 116.11361 | 13643 ft | 377 kts | 80° |
| 2026-04-20 15:21 | -1.45864 | 116.13918 | 12606 ft | 371 kts | 80° |
| 2026-04-20 15:22 | -1.45401 | 116.16425 | 11612 ft | 363 kts | 80° |
| 2026-04-20 15:22 | -1.44945 | 116.18890 | 10647 ft | 358 kts | 80° |
| 2026-04-20 15:22 | -1.44504 | 116.21268 | 10228 ft | 335 kts | 80° |
| 2026-04-20 15:22 | -1.44096 | 116.23470 | 9991 ft | 309 kts | 80° |
| 2026-04-20 15:23 | -1.43714 | 116.25526 | 9409 ft | 297 kts | 79° |
| 2026-04-20 15:23 | -1.43344 | 116.27522 | 8866 ft | 286 kts | 79° |
| 2026-04-20 15:23 | -1.42981 | 116.29480 | 8667 ft | 289 kts | 79° |
| 2026-04-20 15:23 | -1.42615 | 116.31455 | 8530 ft | 288 kts | 79° |
| 2026-04-20 15:24 | -1.42249 | 116.33425 | 8417 ft | 289 kts | 79° |
| 2026-04-20 15:24 | -1.41884 | 116.35393 | 8300 ft | 287 kts | 79° |
| 2026-04-20 15:24 | -1.41521 | 116.37348 | 8174 ft | 286 kts | 79° |
| 2026-04-20 15:24 | -1.41159 | 116.39298 | 8052 ft | 285 kts | 79° |
| 2026-04-20 15:25 | -1.40798 | 116.41244 | 7753 ft | 285 kts | 79° |
| 2026-04-20 15:25 | -1.40439 | 116.43177 | 7392 ft | 279 kts | 79° |
| 2026-04-20 15:25 | -1.40093 | 116.45041 | 7024 ft | 269 kts | 79° |
| 2026-04-20 15:25 | -1.39756 | 116.46857 | 6676 ft | 259 kts | 79° |
| 2026-04-20 15:26 | -1.39433 | 116.48592 | 6340 ft | 250 kts | 79° |
| 2026-04-20 15:26 | -1.39104 | 116.50372 | 5976 ft | 278 kts | 79° |
| 2026-04-20 15:26 | -1.38741 | 116.52332 | 5726 ft | 290 kts | 79° |
| 2026-04-20 15:26 | -1.38380 | 116.54280 | 5657 ft | 280 kts | 79° |
| 2026-04-20 15:27 | -1.38028 | 116.56169 | 5207 ft | 275 kts | 79° |
| 2026-04-20 15:27 | -1.37682 | 116.58036 | 4593 ft | 273 kts | 79° |
| 2026-04-20 15:27 | -1.37341 | 116.59883 | 4107 ft | 265 kts | 79° |
| 2026-04-20 15:27 | -1.37014 | 116.61648 | 3753 ft | 253 kts | 79° |
| 2026-04-20 15:28 | -1.36700 | 116.63339 | 3430 ft | 243 kts | 79° |
| 2026-04-20 15:28 | -1.36396 | 116.64981 | 3097 ft | 246 kts | 79° |
| 2026-04-20 15:28 | -1.36062 | 116.66780 | 2751 ft | 274 kts | 79° |
| 2026-04-20 15:28 | -1.35722 | 116.68616 | 2555 ft | 258 kts | 79° |
| 2026-04-20 15:29 | -1.35410 | 116.70296 | 2501 ft | 234 kts | 79° |
| 2026-04-20 15:29 | -1.35012 | 116.71801 | 2398 ft | 215 kts | 69° |
| 2026-04-20 15:29 | -1.34369 | 116.73096 | 2308 ft | 202 kts | 60° |
| 2026-04-20 15:29 | -1.33705 | 116.74282 | 2233 ft | 187 kts | 60° |
| 2026-04-20 15:30 | -1.33116 | 116.75363 | 2112 ft | 168 kts | 61° |
| 2026-04-20 15:30 | -1.32593 | 116.76347 | 2020 ft | 151 kts | 62° |
| 2026-04-20 15:30 | -1.32125 | 116.77245 | 2008 ft | 143 kts | 63° |
| 2026-04-20 15:30 | -1.31678 | 116.78117 | 1997 ft | 142 kts | 62° |
| 2026-04-20 15:31 | -1.31232 | 116.79004 | 1857 ft | 140 kts | 65° |
| 2026-04-20 15:31 | -1.30850 | 116.79908 | 1704 ft | 145 kts | 67° |
| 2026-04-20 15:31 | -1.30478 | 116.80819 | 1502 ft | 140 kts | 67° |
| 2026-04-20 15:31 | -1.30097 | 116.81734 | 1338 ft | 140 kts | 67° |
| 2026-04-20 15:32 | -1.29720 | 116.82636 | 1166 ft | 145 kts | 67° |
| 2026-04-20 15:32 | -1.29336 | 116.83546 | 978 ft | 142 kts | 66° |
| 2026-04-20 15:32 | -1.28950 | 116.84457 | 805 ft | 141 kts | 66° |
| 2026-04-20 15:32 | -1.28557 | 116.85377 | 684 ft | 144 kts | 65° |
| 2026-04-20 15:33 | -1.28163 | 116.86293 | 513 ft | 144 kts | 66° |
| 2026-04-20 15:33 | -1.27771 | 116.87221 | 332 ft | 144 kts | 64° |
| 2026-04-20 15:33 | -1.27381 | 116.88138 | 116 ft | 145 kts | 65° |
| 2026-04-20 15:33 | -1.27001 | 116.89053 | 29 ft | 136 kts | 66° |
| 2026-04-20 15:34 | -1.26705 | 116.89756 | 28 ft | 81 kts | 67° |
| 2026-04-20 15:34 | -1.26588 | 116.90034 | 27 ft | 26 kts | 68° |
| 2026-04-20 15:34 | -1.26561 | 116.90096 | 26 ft | 2 kts | 65° |
| 2026-04-20 15:34 | -1.26523 | 116.90125 | 29 ft | 9 kts | 11° |
| 2026-04-20 15:35 | -1.26458 | 116.90100 | 26 ft | 11 kts | 334° |
| 2026-04-20 15:35 | -1.26406 | 116.90049 | 27 ft | 11 kts | 285° |
| 2026-04-20 15:35 | -1.26429 | 116.89973 | 27 ft | 12 kts | 249° |
| 2026-04-20 15:35 | -1.26465 | 116.89888 | 27 ft | 14 kts | 247° |
| 2026-04-20 15:36 | -1.26493 | 116.89811 | 27 ft | 8 kts | 263° |
| 2026-04-20 15:36 | -1.26461 | 116.89766 | 27 ft | 8 kts | 317° |
| 2026-04-20 15:36 | -1.26451 | 116.89708 | 27 ft | 9 kts | 260° |
| 2026-04-20 15:36 | -1.26469 | 116.89657 | 27 ft | 4 kts | 262° |
| 2026-04-20 15:37 | -1.26449 | 116.89635 | 27 ft | 4 kts | 326° |
| 2026-04-20 15:37 | -1.26419 | 116.89621 | 27 ft | 5 kts | 336° |
| 2026-04-20 15:37 | -1.26414 | 116.89619 | 27 ft | 0 kts | 336° |
| 2026-04-20 15:37 | -1.26413 | 116.89618 | 27 ft | 0 kts | 336° |